createdAt,value
2018-07-11T00:02:26.660Z,2.50
2018-07-11T00:04:54.693Z,1.73
2018-07-11T00:07:22.812Z,2.20
2018-07-11T00:09:50.873Z,2.47
2018-07-11T00:12:18.961Z,1.87
2018-07-11T00:14:47.001Z,1.97
2018-07-11T00:17:15.481Z,2.27
2018-07-11T00:19:43.944Z,2.27
2018-07-11T00:22:12.053Z,2.40
2018-07-11T00:24:40.173Z,2.60
2018-07-11T00:27:08.313Z,2.33
2018-07-11T00:29:36.601Z,2.43
2018-07-11T00:32:05.452Z,1.47
2018-07-11T00:34:33.525Z,2.00
2018-07-11T00:37:01.667Z,2.67
2018-07-11T00:39:29.628Z,1.97
2018-07-11T00:41:57.703Z,2.87
2018-07-11T00:44:25.760Z,2.17
2018-07-11T00:46:53.821Z,2.37
2018-07-11T00:49:21.978Z,1.97
2018-07-11T00:51:50.943Z,2.47
2018-07-11T00:54:19.092Z,2.80
2018-07-11T00:56:46.952Z,2.83
2018-07-11T00:59:24.552Z,2.40
2018-07-11T01:01:53.240Z,2.37
2018-07-11T01:04:24.464Z,3.03
2018-07-11T01:06:52.664Z,2.33
2018-07-11T01:09:20.737Z,2.60
2018-07-11T01:11:48.780Z,2.10
2018-07-11T01:14:16.846Z,3.43
2018-07-11T01:16:44.971Z,2.87
2018-07-11T01:19:13.241Z,2.77
2018-07-11T01:21:41.308Z,2.33
2018-07-11T01:24:09.385Z,2.20
2018-07-11T01:26:38.564Z,2.87
2018-07-11T01:29:07.132Z,2.73
2018-07-11T01:31:35.253Z,2.60
2018-07-11T01:34:03.325Z,2.47
2018-07-11T01:36:31.922Z,2.40
2018-07-11T01:39:00.829Z,2.57
2018-07-11T01:41:28.869Z,2.57
2018-07-11T01:43:56.928Z,3.20
2018-07-11T01:46:27.754Z,2.27
2018-07-11T01:48:55.797Z,2.53
2018-07-11T01:51:28.180Z,3.10
2018-07-11T01:53:56.288Z,2.70
2018-07-11T01:56:25.133Z,2.67
2018-07-11T01:58:53.476Z,2.57
2018-07-11T02:01:21.537Z,2.77
2018-07-11T02:03:49.584Z,2.90
2018-07-11T02:06:17.663Z,3.23
2018-07-11T02:08:45.746Z,2.50
2018-07-11T02:11:13.817Z,3.27
2018-07-11T02:13:41.879Z,2.53
2018-07-11T02:16:09.950Z,2.90
2018-07-11T02:18:38.013Z,3.30
2018-07-11T02:21:06.481Z,3.20
2018-07-11T02:23:36.924Z,3.07
2018-07-11T02:26:05.276Z,3.20
2018-07-11T02:28:33.336Z,4.07
2018-07-11T02:31:01.670Z,3.57
2018-07-11T02:33:30.822Z,3.17
2018-07-11T02:35:58.889Z,3.20
2018-07-11T02:38:26.748Z,2.90
2018-07-11T02:40:54.899Z,3.37
2018-07-11T02:43:23.021Z,3.93
2018-07-11T02:45:50.881Z,3.43
2018-07-11T02:48:18.960Z,4.23
2018-07-11T02:50:47.061Z,3.80
2018-07-11T02:53:19.538Z,3.90
2018-07-11T02:55:48.286Z,3.90
2018-07-11T02:58:16.423Z,3.30
2018-07-11T03:00:44.476Z,3.67
2018-07-11T03:03:12.553Z,3.53
2018-07-11T03:05:40.852Z,3.33
2018-07-11T03:08:08.991Z,4.40
2018-07-11T03:10:37.306Z,4.07
2018-07-11T03:13:05.884Z,3.70
2018-07-11T03:15:33.996Z,4.17
2018-07-11T03:18:02.152Z,4.30
2018-07-11T03:20:30.236Z,3.73
2018-07-11T03:22:58.307Z,4.03
2018-07-11T03:25:26.373Z,4.27
2018-07-11T03:27:54.453Z,4.47
2018-07-11T03:30:22.533Z,3.57
2018-07-11T03:32:50.740Z,4.57
2018-07-11T03:35:18.816Z,4.10
2018-07-11T03:37:46.950Z,4.43
2018-07-11T03:40:15.077Z,4.47
2018-07-11T03:42:43.141Z,3.70
2018-07-11T03:45:11.272Z,5.40
2018-07-11T03:47:39.377Z,5.90
2018-07-11T03:50:07.426Z,5.63
2018-07-11T03:52:35.512Z,7.90
2018-07-11T03:55:03.592Z,6.20
2018-07-11T03:57:31.665Z,5.53
2018-07-11T03:59:59.749Z,5.93
2018-07-11T04:02:27.816Z,6.30
2018-07-11T04:04:55.949Z,6.27
2018-07-11T04:07:23.967Z,5.50
2018-07-11T04:09:52.016Z,6.13
2018-07-11T04:12:19.931Z,5.77
2018-07-11T04:14:47.964Z,6.23
2018-07-11T04:17:15.821Z,6.63
2018-07-11T04:19:43.892Z,4.97
2018-07-11T04:22:11.947Z,4.93
2018-07-11T04:24:40.853Z,4.97
2018-07-11T04:27:08.930Z,4.73
2018-07-11T04:29:37.017Z,5.30
2018-07-11T04:32:05.134Z,5.20
2018-07-11T04:34:33.264Z,3.93
2018-07-11T04:37:01.285Z,7.33
2018-07-11T04:39:29.362Z,6.13
2018-07-11T04:41:57.404Z,6.83
2018-07-11T04:44:25.520Z,8.30
2018-07-11T04:46:53.556Z,6.87
2018-07-11T04:49:21.432Z,5.57
2018-07-11T04:51:50.225Z,6.40
2018-07-11T04:54:18.284Z,5.30
2018-07-11T04:56:46.349Z,4.60
2018-07-11T04:59:14.426Z,5.93
2018-07-11T05:01:42.504Z,4.97
2018-07-11T05:04:10.549Z,4.73
2018-07-11T05:06:38.656Z,5.10
2018-07-11T05:09:06.796Z,4.93
2018-07-11T05:11:34.832Z,4.27
2018-07-11T05:14:02.776Z,5.30
2018-07-11T05:16:30.833Z,5.40
2018-07-11T05:18:58.885Z,4.97
2018-07-11T05:21:27.064Z,5.13
2018-07-11T05:23:55.145Z,4.40
2018-07-11T05:26:23.196Z,5.00
2018-07-11T05:28:52.617Z,5.30
2018-07-11T05:31:20.757Z,4.57
2018-07-11T05:33:48.873Z,6.23
2018-07-11T05:36:17.100Z,5.90
2018-07-11T05:38:45.213Z,5.43
2018-07-11T05:41:13.276Z,7.00
2018-07-11T05:43:41.337Z,6.47
2018-07-11T05:46:09.453Z,5.90
2018-07-11T05:48:37.662Z,6.00
2018-07-11T05:51:05.849Z,5.13
2018-07-11T05:53:33.948Z,7.23
2018-07-11T05:56:02.340Z,7.53
2018-07-11T05:58:30.480Z,5.80
2018-07-11T06:00:58.625Z,8.53
2018-07-11T06:03:26.673Z,5.93
2018-07-11T06:05:54.756Z,6.73
2018-07-11T06:08:22.797Z,6.53
2018-07-11T06:10:50.949Z,6.33
2018-07-11T06:13:19.019Z,8.83
2018-07-11T06:15:47.312Z,6.27
2018-07-11T06:18:15.364Z,9.07
2018-07-11T06:20:43.426Z,6.80
2018-07-11T06:23:11.356Z,7.53
2018-07-11T06:25:39.517Z,10.03
2018-07-11T06:28:07.586Z,8.77
2018-07-11T06:30:35.644Z,7.73
2018-07-11T06:33:03.777Z,10.00
2018-07-11T06:35:31.821Z,11.83
2018-07-11T06:38:00.043Z,8.43
2018-07-11T06:40:28.013Z,8.63
2018-07-11T06:42:57.017Z,7.80
2018-07-11T06:45:25.110Z,7.93
2018-07-11T06:47:53.920Z,7.43
2018-07-11T06:50:21.964Z,7.63
2018-07-11T06:52:50.054Z,7.00
2018-07-11T06:55:18.012Z,7.83
2018-07-11T06:57:46.059Z,11.40
2018-07-11T07:00:14.217Z,9.63
2018-07-11T07:02:43.175Z,12.17
2018-07-11T07:05:11.300Z,11.13
2018-07-11T07:07:39.640Z,8.50
2018-07-11T07:10:07.512Z,8.40
2018-07-11T07:12:35.625Z,8.07
2018-07-11T07:15:03.720Z,9.00
2018-07-11T07:17:31.785Z,6.47
2018-07-11T07:19:59.845Z,8.13
2018-07-11T07:22:27.963Z,7.97
2018-07-11T07:24:56.095Z,8.43
2018-07-11T07:27:24.152Z,12.03
2018-07-11T07:29:52.225Z,10.20
2018-07-11T07:32:20.411Z,9.43
2018-07-11T07:34:48.484Z,8.67
2018-07-11T07:37:16.520Z,7.17
2018-07-11T07:39:44.603Z,7.53
2018-07-11T07:42:12.689Z,7.93
2018-07-11T07:44:40.744Z,7.60
2018-07-11T07:47:13.177Z,8.27
2018-07-11T07:49:41.100Z,10.13
2018-07-11T07:52:09.181Z,9.20
2018-07-11T07:54:37.278Z,8.03
2018-07-11T07:57:05.345Z,9.03
2018-07-11T07:59:33.439Z,9.63
2018-07-11T08:02:01.517Z,7.73
2018-07-11T08:04:29.485Z,7.87
2018-07-11T08:06:57.569Z,8.23
2018-07-11T08:09:25.685Z,7.17
2018-07-11T08:11:53.757Z,7.20
2018-07-11T08:14:21.817Z,6.27
2018-07-11T08:16:49.957Z,6.30
2018-07-11T08:19:17.993Z,7.00
2018-07-11T08:21:46.064Z,7.23
2018-07-11T08:24:25.684Z,5.90
2018-07-11T08:27:09.953Z,6.97
2018-07-11T08:30:05.280Z,6.70
2018-07-11T08:32:44.152Z,7.20
2018-07-11T08:35:29.740Z,8.87
2018-07-11T08:38:17.916Z,9.53
2018-07-11T08:40:57.373Z,6.93
2018-07-11T08:43:38.073Z,7.70
2018-07-11T08:46:29.824Z,8.53
2018-07-11T08:49:09.431Z,6.83
2018-07-11T08:51:54.601Z,6.53
2018-07-11T08:56:40.102Z,6.90
2018-07-11T09:01:25.017Z,6.97
2018-07-11T09:06:14.914Z,5.80
2018-07-11T09:10:59.761Z,6.33
2018-07-11T09:13:45.949Z,7.77
2018-07-11T09:18:28.065Z,6.67
2018-07-11T09:21:17.826Z,6.07
2018-07-11T09:23:56.222Z,5.63
2018-07-11T09:26:24.256Z,6.60
2018-07-11T09:28:52.444Z,5.73
2018-07-11T09:31:20.516Z,5.57
2018-07-11T09:33:48.593Z,6.33
2018-07-11T09:36:16.436Z,5.53
2018-07-11T09:38:44.501Z,5.70
2018-07-11T09:41:12.552Z,5.73
2018-07-11T09:43:40.617Z,5.57
2018-07-11T09:46:08.658Z,5.23
2018-07-11T09:48:36.732Z,5.13
2018-07-11T09:51:05.924Z,5.60
2018-07-11T09:53:34.073Z,5.40
2018-07-11T09:56:02.161Z,6.03
2018-07-11T09:58:30.576Z,5.27
2018-07-11T10:01:04.089Z,5.67
2018-07-11T10:03:32.224Z,5.67
2018-07-11T10:06:00.305Z,6.17
2018-07-11T10:08:28.377Z,5.97
2018-07-11T10:10:58.425Z,6.43
2018-07-11T10:13:26.428Z,7.47
2018-07-11T10:15:54.458Z,7.60
2018-07-11T10:18:22.582Z,5.93
2018-07-11T10:20:50.793Z,6.50
2018-07-11T10:23:18.840Z,6.27
2018-07-11T10:25:46.916Z,6.27
2018-07-11T10:28:17.909Z,7.20
2018-07-11T10:30:46.005Z,7.93
2018-07-11T10:33:14.580Z,7.37
2018-07-11T10:35:42.836Z,7.33
2018-07-11T10:38:11.857Z,7.00
2018-07-11T10:40:39.959Z,7.73
2018-07-11T10:43:08.208Z,8.10
2018-07-11T10:45:36.280Z,6.80
2018-07-11T10:48:04.409Z,6.83
2018-07-11T10:50:32.492Z,6.63
2018-07-11T10:53:00.524Z,8.20
2018-07-11T10:55:28.597Z,7.07
2018-07-11T10:57:56.686Z,7.97
2018-07-11T11:00:36.667Z,5.67
2018-07-11T11:02:55.296Z,6.90
2018-07-11T11:05:23.415Z,7.87
2018-07-11T11:07:52.227Z,8.90
2018-07-11T11:10:20.300Z,8.83
2018-07-11T11:12:48.809Z,8.10
2018-07-11T11:15:16.904Z,6.03
2018-07-11T11:17:44.965Z,4.97
2018-07-11T11:20:13.045Z,4.23
2018-07-11T11:22:41.106Z,4.83
2018-07-11T11:25:09.150Z,5.10
2018-07-11T11:27:37.250Z,5.30
2018-07-11T11:30:05.452Z,5.43
2018-07-11T11:32:34.314Z,4.97
2018-07-11T11:35:02.209Z,5.03
2018-07-11T11:37:30.700Z,5.63
2018-07-11T11:39:58.745Z,4.90
2018-07-11T11:42:26.982Z,6.10
2018-07-11T11:44:54.885Z,4.73
2018-07-11T11:47:26.992Z,4.87
2018-07-11T11:49:55.969Z,5.03
2018-07-11T11:52:24.608Z,4.70
2018-07-11T11:54:53.245Z,4.80
2018-07-11T11:57:21.524Z,3.70
2018-07-11T11:59:49.592Z,4.57
2018-07-11T12:02:17.987Z,4.27
2018-07-11T12:04:46.042Z,4.13
2018-07-11T12:07:14.175Z,4.23
2018-07-11T12:09:42.224Z,3.70
2018-07-11T12:12:10.296Z,4.93
2018-07-11T12:14:38.354Z,5.17
2018-07-11T12:17:06.400Z,5.27
2018-07-11T12:19:34.509Z,4.50
2018-07-11T12:22:02.666Z,5.30
2018-07-11T12:24:30.720Z,4.50
2018-07-11T12:26:58.776Z,5.20
2018-07-11T12:29:26.874Z,4.70
2018-07-11T12:31:57.016Z,5.50
2018-07-11T12:34:25.113Z,5.30
2018-07-11T12:36:54.645Z,5.40
2018-07-11T12:39:23.005Z,5.20
2018-07-11T12:41:51.061Z,5.13
2018-07-11T12:44:19.136Z,6.47
2018-07-11T12:46:47.217Z,5.77
2018-07-11T12:49:15.280Z,6.47
2018-07-11T12:51:43.470Z,5.20
2018-07-11T12:54:11.538Z,5.70
2018-07-11T12:56:39.638Z,5.60
2018-07-11T12:59:08.193Z,5.13
2018-07-11T13:01:37.277Z,5.80
2018-07-11T13:04:05.353Z,5.53
2018-07-11T13:06:33.430Z,5.33
2018-07-11T13:09:01.541Z,5.60
2018-07-11T13:11:29.597Z,5.87
2018-07-11T13:13:57.690Z,5.20
2018-07-11T13:16:25.759Z,5.47
2018-07-11T13:18:53.825Z,5.30
2018-07-11T13:21:21.909Z,4.60
2018-07-11T13:23:51.756Z,5.30
2018-07-11T13:26:20.209Z,5.37
2018-07-11T13:28:49.021Z,5.43
2018-07-11T13:31:17.282Z,5.80
2018-07-11T13:33:45.457Z,4.33
2018-07-11T13:36:13.609Z,6.13
2018-07-11T13:38:41.698Z,6.23
2018-07-11T13:41:09.863Z,5.47
2018-07-11T13:43:38.162Z,6.73
2018-07-11T13:46:06.313Z,7.20
2018-07-11T13:48:34.521Z,6.50
2018-07-11T13:51:02.653Z,7.27
2018-07-11T13:53:30.789Z,6.50
2018-07-11T13:55:59.166Z,4.77
2018-07-11T13:58:27.257Z,5.30
2018-07-11T14:00:55.308Z,4.67
2018-07-11T14:03:23.392Z,4.97
2018-07-11T14:05:51.488Z,4.90
2018-07-11T14:08:20.051Z,9.67
2018-07-11T14:10:48.141Z,5.33
2018-07-11T14:13:16.564Z,4.67
2018-07-11T14:15:44.628Z,4.23
2018-07-11T14:18:13.309Z,5.07
2018-07-11T14:20:41.403Z,4.93
2018-07-11T14:23:09.517Z,5.03
2018-07-11T14:25:39.120Z,4.43
2018-07-11T14:28:07.283Z,4.90
2018-07-11T14:30:37.356Z,5.37
2018-07-11T14:33:08.038Z,7.13
2018-07-11T14:35:36.645Z,7.50
2018-07-11T14:38:04.613Z,4.27
2018-07-11T14:40:32.688Z,4.07
2018-07-11T14:43:00.778Z,3.23
2018-07-11T14:45:30.614Z,3.07
2018-07-11T14:48:04.768Z,4.80
2018-07-11T14:50:32.840Z,3.77
2018-07-11T14:53:00.909Z,3.53
2018-07-11T14:55:29.768Z,4.07
2018-07-11T14:57:57.863Z,4.03
2018-07-11T15:00:27.085Z,3.70
2018-07-11T15:02:55.765Z,3.83
2018-07-11T15:05:23.836Z,4.37
2018-07-11T15:07:52.108Z,4.30
2018-07-11T15:10:21.353Z,4.20
2018-07-11T15:12:49.531Z,4.10
2018-07-11T15:15:17.636Z,3.70
2018-07-11T15:17:45.690Z,4.23
2018-07-11T15:20:16.844Z,3.63
2018-07-11T15:22:47.528Z,4.00
2018-07-11T15:25:17.170Z,3.70
2018-07-11T15:27:45.265Z,4.33
2018-07-11T15:30:13.448Z,3.50
2018-07-11T15:32:41.564Z,3.67
2018-07-11T15:35:09.596Z,3.10
2018-07-11T15:37:37.648Z,2.70
2018-07-11T15:40:24.675Z,1.83
2018-07-11T15:42:52.768Z,2.17
2018-07-11T15:45:20.847Z,2.40
2018-07-11T15:47:48.886Z,3.83
2018-07-11T15:50:16.969Z,3.67
2018-07-11T15:52:45.034Z,4.70
2018-07-11T15:55:13.133Z,3.47
2018-07-11T15:57:49.431Z,2.97
2018-07-11T16:00:18.349Z,2.40
2018-07-11T16:02:49.550Z,2.87
2018-07-11T16:05:20.034Z,2.70
2018-07-11T16:07:49.277Z,2.73
2018-07-11T16:10:20.813Z,2.17
2018-07-11T16:12:48.884Z,1.90
2018-07-11T16:15:17.005Z,2.90
2018-07-11T16:17:45.087Z,3.00
2018-07-11T16:20:13.204Z,2.60
2018-07-11T16:22:41.265Z,2.40
2018-07-11T16:25:09.346Z,2.50
2018-07-11T16:27:37.433Z,2.43
2018-07-11T16:30:05.599Z,3.13
2018-07-11T16:32:33.703Z,3.20
2018-07-11T16:35:01.795Z,3.13
2018-07-11T16:37:29.937Z,3.10
2018-07-11T16:39:58.017Z,3.37
2018-07-11T16:42:26.173Z,2.83
2018-07-11T16:44:54.269Z,3.43
2018-07-11T16:47:22.341Z,3.60
2018-07-11T16:49:50.540Z,4.67
2018-07-11T16:52:18.740Z,3.87
2018-07-11T16:54:46.850Z,2.53
2018-07-11T16:57:20.691Z,3.10
2018-07-11T16:59:59.270Z,2.40
2018-07-11T17:02:27.320Z,3.30
2018-07-11T17:05:00.066Z,2.77
2018-07-11T17:07:28.113Z,3.60
2018-07-11T17:09:56.476Z,2.73
2018-07-11T17:12:25.193Z,3.33
2018-07-11T17:14:57.529Z,3.47
2018-07-11T17:17:30.045Z,2.83
2018-07-11T17:20:04.685Z,2.87
2018-07-11T17:22:39.231Z,2.87
2018-07-11T17:25:07.417Z,3.47
2018-07-11T17:27:35.472Z,3.50
2018-07-11T17:30:04.445Z,3.47
2018-07-11T17:32:32.687Z,3.60
2018-07-11T17:35:00.821Z,3.43
2018-07-11T17:37:32.469Z,4.40
2018-07-11T17:40:08.898Z,4.17
2018-07-11T17:42:36.941Z,3.47
2018-07-11T17:45:09.985Z,5.00
2018-07-11T17:48:15.420Z,5.03
2018-07-11T17:50:43.772Z,4.57
2018-07-11T17:53:16.811Z,4.97
2018-07-11T17:55:58.265Z,4.70
2018-07-11T17:58:34.350Z,3.93
2018-07-11T18:01:05.129Z,4.17
2018-07-11T18:03:42.272Z,4.17
2018-07-11T18:06:21.315Z,4.00
2018-07-11T18:09:05.701Z,5.43
2018-07-11T18:11:43.426Z,4.80
2018-07-11T18:14:11.595Z,5.17
2018-07-11T18:16:41.594Z,5.37
2018-07-11T18:19:20.687Z,5.53
2018-07-11T18:21:57.798Z,5.97
2018-07-11T18:24:41.053Z,5.00
2018-07-11T18:27:24.137Z,6.60
2018-07-11T18:30:06.388Z,5.53
2018-07-11T18:32:47.889Z,4.43
2018-07-11T18:35:27.773Z,6.53
2018-07-11T18:38:00.809Z,6.80
2018-07-11T18:40:42.619Z,8.00
2018-07-11T18:43:22.921Z,8.07
2018-07-11T18:45:57.385Z,6.50
2018-07-11T18:48:36.670Z,6.17
2018-07-11T18:51:13.581Z,5.83
2018-07-11T18:53:51.012Z,6.23
2018-07-11T18:56:28.972Z,5.40
2018-07-11T18:59:04.384Z,6.17
2018-07-11T19:01:43.999Z,5.57
2018-07-11T19:04:19.063Z,5.93
2018-07-11T19:06:49.890Z,5.93
2018-07-11T19:09:53.781Z,7.17
2018-07-11T19:12:25.288Z,6.07
2018-07-11T19:15:02.131Z,5.40
2018-07-11T19:18:06.790Z,5.83
2018-07-11T19:20:38.043Z,6.33
2018-07-11T19:23:18.038Z,6.03
2018-07-11T19:25:56.201Z,5.77
2018-07-11T19:28:37.889Z,6.53
2018-07-11T19:31:15.544Z,5.87
2018-07-11T19:33:55.005Z,6.90
2018-07-11T19:36:36.296Z,5.67
2018-07-11T19:39:07.061Z,5.23
2018-07-11T19:41:50.795Z,5.73
2018-07-11T19:44:27.988Z,6.13
2018-07-11T19:47:06.054Z,5.87
2018-07-11T19:49:48.337Z,5.60
2018-07-11T19:52:56.020Z,6.23
2018-07-11T19:55:32.500Z,5.73
2018-07-11T19:58:00.656Z,5.13
2018-07-11T20:00:28.829Z,5.00
2018-07-11T20:02:57.104Z,5.57
2018-07-11T20:05:25.284Z,5.67
2018-07-11T20:07:53.565Z,5.67
2018-07-11T20:10:21.689Z,5.63
2018-07-11T20:12:50.128Z,4.43
2018-07-11T20:15:18.688Z,4.40
2018-07-11T20:17:46.747Z,4.80
2018-07-11T20:20:14.887Z,6.23
2018-07-11T20:22:43.017Z,13.90
2018-07-11T20:25:11.185Z,10.37
2018-07-11T20:27:39.241Z,11.17
2018-07-11T20:30:09.281Z,14.13
2018-07-11T20:32:37.348Z,9.40
2018-07-11T20:35:05.510Z,11.73
2018-07-11T20:37:33.606Z,9.73
2018-07-11T20:40:01.671Z,13.60
2018-07-11T20:42:29.764Z,10.80
2018-07-11T20:44:58.098Z,7.80
2018-07-11T20:47:26.161Z,7.27
2018-07-11T20:49:54.212Z,7.80
2018-07-11T20:52:22.296Z,6.33
2018-07-11T20:54:50.367Z,7.03
2018-07-11T20:57:18.408Z,6.83
2018-07-11T20:59:58.029Z,7.07
2018-07-11T21:02:37.561Z,6.87
2018-07-11T21:05:28.252Z,6.80
2018-07-11T21:08:07.721Z,7.07
2018-07-11T21:12:49.005Z,6.13
2018-07-11T21:15:31.216Z,6.57
2018-07-11T21:18:09.137Z,7.97
2018-07-11T21:20:37.012Z,6.53
2018-07-11T21:23:05.148Z,6.50
2018-07-11T21:25:33.265Z,5.97
2018-07-11T21:28:01.385Z,6.00
2018-07-11T21:30:29.424Z,5.47
2018-07-11T21:32:57.410Z,6.90
2018-07-11T21:35:25.450Z,14.30
2018-07-11T21:37:53.561Z,30.07
2018-07-11T21:40:21.608Z,15.67
2018-07-11T21:42:51.160Z,30.70
2018-07-11T21:45:19.233Z,23.23
2018-07-11T21:47:47.559Z,14.90
2018-07-11T21:50:15.732Z,6.97
2018-07-11T21:52:43.798Z,6.63
2018-07-11T21:55:11.865Z,6.07
2018-07-11T21:57:39.918Z,5.13
2018-07-11T22:00:08.158Z,6.17
2018-07-11T22:02:36.269Z,6.33
2018-07-11T22:05:04.325Z,6.07
2018-07-11T22:07:32.568Z,6.23
2018-07-11T22:10:01.951Z,6.13
2018-07-11T22:12:30.027Z,6.87
2018-07-11T22:14:58.622Z,6.30
2018-07-11T22:17:38.347Z,6.13
2018-07-11T22:20:05.492Z,6.43
2018-07-11T22:22:32.996Z,6.50
2018-07-11T22:25:00.184Z,6.43
2018-07-11T22:27:27.337Z,6.80
2018-07-11T22:29:54.530Z,6.63
2018-07-11T22:32:21.681Z,6.47
2018-07-11T22:34:48.821Z,6.53
2018-07-11T22:37:15.989Z,5.73
2018-07-11T22:39:43.209Z,5.77
2018-07-11T22:42:10.380Z,6.63
2018-07-11T22:44:37.529Z,6.13
2018-07-11T22:47:04.693Z,6.67
2018-07-11T22:49:31.872Z,6.23
2018-07-11T22:51:59.351Z,6.20
2018-07-11T22:54:26.496Z,5.83
2018-07-11T22:56:53.737Z,6.47
2018-07-11T22:59:21.237Z,6.43
2018-07-11T23:01:48.397Z,6.20
2018-07-11T23:04:15.559Z,6.53
2018-07-11T23:06:42.735Z,5.93
2018-07-11T23:09:09.876Z,5.73
2018-07-11T23:11:37.052Z,6.10
2018-07-11T23:14:04.215Z,6.27
2018-07-11T23:16:31.373Z,5.87
2018-07-11T23:18:58.537Z,6.77
2018-07-11T23:21:25.952Z,5.60
2018-07-11T23:23:53.113Z,6.23
2018-07-11T23:26:20.381Z,5.60
2018-07-11T23:28:47.585Z,6.93
2018-07-11T23:31:14.730Z,6.20
2018-07-11T23:33:41.888Z,6.83
2018-07-11T23:36:09.173Z,6.57
2018-07-11T23:38:36.385Z,7.00
2018-07-11T23:41:03.466Z,6.00
2018-07-11T23:43:30.645Z,6.80
2018-07-11T23:45:58.256Z,6.50
2018-07-11T23:48:25.404Z,6.30
2018-07-11T23:50:52.569Z,7.60
2018-07-11T23:53:19.740Z,6.40
2018-07-11T23:55:46.897Z,6.43
2018-07-11T23:58:14.062Z,6.43
